Time;durP1;ratioP1;P1;durP2;ratioP2;P2;SDS_P1;SDS_P2;PMS_P1;PMS_P2;Temp;Humidity;BMP_temperature;BMP_pressure;BME280_temperature;BME280_humidity;BME280_pressure;Samples;Min_cycle;Max_cycle;Signal;HPM_P1;HPM_P2
2023/10/02 00:01:06;;;;;;;11.23;9.73;;;;;;;10.37;100.00;97756.38;5077524;28;20285;-56
2023/10/02 00:03:31;;;;;;;11.37;10.20;;;;;;;10.32;100.00;97754.22;5026161;28;20232;-59
2023/10/02 00:05:59;;;;;;;11.17;9.73;;;;;;;10.33;100.00;97755.88;5075097;28;20821;-60
2023/10/02 00:08:39;;;;;;;13.80;9.67;;;;;;;10.30;100.00;97750.13;5071002;28;20242;-57
2023/10/02 00:14:19;;;;;;;11.37;9.37;;;;;;;10.20;100.00;97737.84;5072665;28;20213;-58
2023/10/02 00:17:03;;;;;;;11.37;9.47;;;;;;;10.21;100.00;97741.34;5078697;28;20218;-56
2023/10/02 00:19:35;;;;;;;12.83;10.60;;;;;;;10.18;100.00;97744.34;5071733;28;20516;-60
2023/10/02 00:22:06;;;;;;;13.90;9.33;;;;;;;10.14;100.00;97744.66;5076974;28;20765;-61
2023/10/02 00:24:37;;;;;;;10.63;9.50;;;;;;;10.16;100.00;97736.53;5074910;28;20206;-61
2023/10/02 00:27:07;;;;;;;13.70;9.90;;;;;;;10.12;100.00;97740.53;5071457;28;20210;-60
2023/10/02 00:29:50;;;;;;;12.07;9.57;;;;;;;10.09;100.00;97739.06;4972331;28;20256;-59
2023/10/02 00:32:19;;;;;;;11.53;9.80;;;;;;;10.08;100.00;97736.56;5076643;28;20195;-61
2023/10/02 00:34:47;;;;;;;10.60;8.83;;;;;;;10.04;100.00;97741.38;5073689;28;20199;-62
2023/10/02 00:37:16;;;;;;;11.10;9.13;;;;;;;10.04;100.00;97736.09;5070375;28;20749;-62
2023/10/02 00:39:47;;;;;;;12.57;9.87;;;;;;;10.03;100.00;97731.75;5031928;28;20308;-58
2023/10/02 00:42:16;;;;;;;13.10;9.87;;;;;;;9.99;100.00;97735.72;5065197;28;20580;-61
2023/10/02 00:44:54;;;;;;;10.20;8.60;;;;;;;10.03;100.00;97741.53;5064568;28;20237;-60
2023/10/02 00:50:19;;;;;;;12.20;9.57;;;;;;;9.98;100.00;97731.44;5067120;28;20245;-62
2023/10/02 00:52:52;;;;;;;10.70;9.60;;;;;;;9.96;100.00;97736.06;5066412;28;20233;-61
2023/10/02 00:55:21;;;;;;;11.60;9.97;;;;;;;9.95;100.00;97729.13;5077533;28;20302;-60
2023/10/02 00:57:52;;;;;;;10.67;9.57;;;;;;;9.93;100.00;97731.94;5074099;28;20390;-61
2023/10/02 01:00:21;;;;;;;11.50;9.00;;;;;;;9.90;100.00;97724.34;5063293;28;20248;-60
2023/10/02 01:02:57;;;;;;;12.23;9.60;;;;;;;9.92;100.00;97730.31;4977831;28;20819;-59
2023/10/02 01:05:31;;;;;;;10.57;9.13;;;;;;;9.91;100.00;97730.44;5073520;28;20198;-60
2023/10/02 01:08:00;;;;;;;13.33;9.67;;;;;;;9.85;100.00;97732.78;5067776;28;20204;-56
2023/10/02 01:10:30;;;;;;;13.03;9.03;;;;;;;9.88;100.00;97723.69;5006176;28;20237;-61
2023/10/02 01:13:05;;;;;;;11.47;9.67;;;;;;;9.82;100.00;97724.31;5068114;28;20202;-60
2023/10/02 01:15:33;;;;;;;10.47;9.33;;;;;;;9.80;100.00;97727.16;5072235;28;20749;-60
2023/10/02 01:18:27;;;;;;;11.67;9.73;;;;;;;9.78;100.00;97725.66;5073074;28;20236;-59
2023/10/02 01:20:56;;;;;;;11.80;9.90;;;;;;;9.75;100.00;97728.63;5064694;28;20211;-58
2023/10/02 01:23:26;;;;;;;10.00;9.00;;;;;;;9.70;100.00;97732.59;5073883;28;20226;-60
2023/10/02 01:26:00;;;;;;;11.73;9.90;;;;;;;9.67;100.00;97727.63;5070851;28;20218;-61
2023/10/02 01:28:32;;;;;;;11.83;9.50;;;;;;;9.65;100.00;97724.34;5077323;28;20534;-61
2023/10/02 01:31:31;;;;;;;14.73;10.83;;;;;;;9.66;100.00;97719.84;5067735;28;20222;-60
2023/10/02 01:33:49;;;;;;;14.40;10.80;;;;;;;9.59;100.00;97706.47;5019850;28;24994;-60
2023/10/02 01:36:19;;;;;;;10.50;9.10;;;;;;;9.61;100.00;97715.06;5015562;28;20528;-59
2023/10/02 01:38:47;;;;;;;11.27;9.30;;;;;;;9.58;100.00;97714.56;5070785;28;20234;-61
2023/10/02 01:41:16;;;;;;;13.10;9.67;;;;;;;9.52;100.00;97716.06;5069287;28;20637;-59
2023/10/02 01:43:45;;;;;;;12.90;10.10;;;;;;;9.51;100.00;97714.41;5064414;28;20309;-60
2023/10/02 01:46:17;;;;;;;10.87;9.33;;;;;;;9.49;100.00;97708.47;5051073;28;20229;-61
2023/10/02 01:48:48;;;;;;;10.50;9.40;;;;;;;9.48;100.00;97712.09;5013710;28;20230;-60
2023/10/02 01:51:26;;;;;;;11.13;9.57;;;;;;;9.44;100.00;97714.22;5075644;28;21905;-58
2023/10/02 01:53:58;;;;;;;11.13;9.37;;;;;;;9.47;100.00;97707.78;5078684;28;20564;-57
2023/10/02 01:56:29;;;;;;;13.30;9.77;;;;;;;9.49;100.00;97716.41;5077040;28;20573;-60
2023/10/02 01:59:08;;;;;;;10.97;9.37;;;;;;;9.50;100.00;97712.75;5070988;28;20214;-58
2023/10/02 02:01:46;;;;;;;12.40;9.63;;;;;;;9.51;100.00;97707.28;5080158;28;20206;-59
2023/10/02 02:04:15;;;;;;;10.67;9.63;;;;;;;9.51;100.00;97715.22;5074241;28;20206;-56
2023/10/02 02:06:52;;;;;;;11.47;8.87;;;;;;;9.48;100.00;97699.69;5080013;28;21002;-58
2023/10/02 02:09:23;;;;;;;11.87;9.50;;;;;;;9.43;100.00;97707.28;4964159;28;20225;-58
2023/10/02 02:12:06;;;;;;;9.07;8.17;;;;;;;9.42;100.00;97708.28;5081475;28;20221;-60
2023/10/02 02:14:40;;;;;;;10.47;8.63;;;;;;;9.36;100.00;97701.81;5069877;28;20256;-60
2023/10/02 02:17:11;;;;;;;12.33;9.77;;;;;;;9.33;100.00;97698.69;5071787;28;20809;-59
2023/10/02 02:19:47;;;;;;;12.47;10.60;;;;;;;9.32;100.00;97697.84;5024704;28;20241;-60
2023/10/02 02:22:17;;;;;;;12.63;10.13;;;;;;;9.27;100.00;97697.50;5062586;28;20206;-60
2023/10/02 02:24:46;;;;;;;10.57;9.40;;;;;;;9.25;100.00;97702.13;5075370;28;20309;-59
2023/10/02 02:27:17;;;;;;;10.87;9.40;;;;;;;9.20;100.00;97699.97;5076858;28;20285;-58
2023/10/02 02:29:45;;;;;;;11.33;9.23;;;;;;;9.22;100.00;97700.63;5073836;28;20959;-58
2023/10/02 02:32:12;;;;;;;10.93;9.43;;;;;;;9.23;100.00;97702.28;5068289;28;20215;-58
2023/10/02 02:34:40;;;;;;;10.67;9.57;;;;;;;9.26;100.00;97704.59;5073080;28;20547;-59
2023/10/02 02:37:08;;;;;;;10.53;9.53;;;;;;;9.27;100.00;97711.53;5063489;28;20206;-60
2023/10/02 02:39:38;;;;;;;13.80;10.10;;;;;;;9.27;100.00;97718.66;4964048;28;20723;-60
2023/10/02 02:42:09;;;;;;;11.57;10.37;;;;;;;9.33;100.00;97714.56;5077143;28;20676;-60
2023/10/02 02:44:41;;;;;;;14.67;10.40;;;;;;;9.33;100.00;97728.59;5074963;28;20292;-61
2023/10/02 02:47:08;;;;;;;13.50;9.90;;;;;;;9.33;100.00;97725.13;5075350;28;20249;-60
2023/10/02 02:49:50;;;;;;;12.03;10.07;;;;;;;9.30;100.00;97718.34;5026699;28;20291;-60
2023/10/02 02:52:24;;;;;;;14.50;9.77;;;;;;;9.27;100.00;97722.13;5076875;28;20218;-60
2023/10/02 02:54:58;;;;;;;10.83;9.67;;;;;;;9.24;100.00;97730.38;5073024;28;20247;-59
2023/10/02 02:57:27;;;;;;;11.57;9.23;;;;;;;9.20;100.00;97720.31;5075215;28;20201;-60
2023/10/02 03:00:24;;;;;;;12.97;9.57;;;;;;;9.17;100.00;97716.16;5071970;28;20229;-61
2023/10/02 03:02:47;;;;;;;10.30;8.37;;;;;;;9.17;100.00;97726.75;5073844;28;20210;-61
2023/10/02 03:05:16;;;;;;;9.97;8.53;;;;;;;9.20;100.00;97725.59;5076235;28;20211;-59
2023/10/02 03:07:45;;;;;;;10.97;8.70;;;;;;;9.10;100.00;97715.16;5024849;28;20687;-61
2023/10/02 03:10:16;;;;;;;13.70;10.03;;;;;;;9.13;100.00;97722.75;5030776;28;20207;-60
2023/10/02 03:12:45;;;;;;;13.00;9.20;;;;;;;9.14;100.00;97732.34;5025625;28;20214;-58
2023/10/02 03:15:18;;;;;;;12.20;9.03;;;;;;;9.11;100.00;97727.38;5060513;28;20275;-60
2023/10/02 03:17:46;;;;;;;8.67;7.77;;;;;;;9.04;100.00;97721.09;5073037;28;20198;-59
2023/10/02 03:20:23;;;;;;;12.07;8.60;;;;;;;9.03;100.00;97730.00;5065864;28;20203;-56
2023/10/02 03:22:53;;;;;;;9.27;8.33;;;;;;;9.00;100.00;97730.34;5026934;28;21230;-57
2023/10/02 03:25:40;;;;;;;9.50;8.60;;;;;;;9.01;100.00;97726.72;5068592;28;20217;-59
2023/10/02 03:28:16;;;;;;;11.27;8.90;;;;;;;9.00;100.00;97725.88;5065792;28;20223;-57
2023/10/02 03:30:48;;;;;;;10.07;7.67;;;;;;;8.97;100.00;97727.03;5069176;28;20738;-59
2023/10/02 03:33:20;;;;;;;10.40;8.00;;;;;;;8.93;100.00;97728.34;5070817;28;20439;-58
2023/10/02 03:35:58;;;;;;;8.80;7.17;;;;;;;8.91;100.00;97724.19;5078266;28;20811;-57
2023/10/02 03:38:26;;;;;;;8.20;7.20;;;;;;;8.82;100.00;97724.16;5059243;28;20230;-59
2023/10/02 03:40:55;;;;;;;9.60;7.73;;;;;;;8.85;100.00;97725.66;4965229;28;20711;-58
2023/10/02 03:43:34;;;;;;;8.30;6.90;;;;;;;8.86;100.00;97726.50;5068410;28;20325;-55
2023/10/02 03:46:06;;;;;;;9.10;7.20;;;;;;;8.84;100.00;97726.63;5070036;28;20218;-57
2023/10/02 03:48:35;;;;;;;11.43;9.10;;;;;;;8.88;100.00;97735.09;5075781;28;20230;-60
2023/10/02 03:51:04;;;;;;;12.23;8.63;;;;;;;8.85;100.00;97732.75;5070310;28;20237;-57
2023/10/02 03:53:33;;;;;;;11.07;7.60;;;;;;;8.86;100.00;97740.50;5068011;28;20194;-57
2023/10/02 03:58:44;;;;;;;10.57;8.30;;;;;;;8.75;100.00;97733.72;5056702;28;20222;-60
2023/10/02 04:01:17;;;;;;;12.87;9.63;;;;;;;8.73;100.00;97729.56;5025546;28;20206;-57
2023/10/02 04:04:06;;;;;;;10.63;8.57;;;;;;;8.65;100.00;97728.56;5076334;28;20575;-60
2023/10/02 04:06:37;;;;;;;8.70;7.90;;;;;;;8.60;100.00;97722.06;5002414;28;20595;-60
2023/10/02 04:09:13;;;;;;;8.40;7.37;;;;;;;8.69;100.00;97735.16;5063385;28;20214;-60
2023/10/02 04:11:42;;;;;;;8.77;6.87;;;;;;;8.66;100.00;97732.00;4960282;28;20680;-58
2023/10/02 04:14:18;;;;;;;12.13;8.43;;;;;;;8.63;100.00;97733.16;5068686;28;20207;-62
2023/10/02 04:16:48;;;;;;;8.40;7.50;;;;;;;8.55;100.00;97735.78;5073373;28;20760;-59
2023/10/02 04:19:18;;;;;;;10.13;8.03;;;;;;;8.56;100.00;97734.78;5064813;28;20399;-57
2023/10/02 04:21:45;;;;;;;11.03;8.00;;;;;;;8.53;100.00;97738.56;5011516;28;20769;-60
2023/10/02 04:24:13;;;;;;;7.77;7.03;;;;;;;8.50;100.00;97736.25;5067071;28;20219;-58
2023/10/02 04:26:41;;;;;;;8.67;7.87;;;;;;;8.56;100.00;97732.16;5022212;28;20221;-56
2023/10/02 04:29:26;;;;;;;8.90;8.10;;;;;;;8.53;100.00;97732.47;5069404;28;20225;-57
2023/10/02 04:32:15;;;;;;;8.93;7.80;;;;;;;8.53;100.00;97743.84;5068590;28;20394;-59
2023/10/02 04:34:56;;;;;;;8.07;7.27;;;;;;;8.53;100.00;97735.09;5075205;28;20594;-57
2023/10/02 04:37:23;;;;;;;8.37;7.57;;;;;;;8.52;100.00;97734.25;5069100;28;20728;-59
2023/10/02 04:40:00;;;;;;;8.00;7.30;;;;;;;8.53;100.00;97735.91;5073996;28;20249;-55
2023/10/02 04:42:29;;;;;;;7.33;6.63;;;;;;;8.58;100.00;97737.25;5070003;28;20274;-60
2023/10/02 04:44:57;;;;;;;7.03;6.40;;;;;;;8.57;100.00;97739.09;5068510;28;20229;-59
2023/10/02 04:47:27;;;;;;;8.10;7.37;;;;;;;8.56;100.00;97732.16;4945688;28;20215;-61
2023/10/02 04:52:56;;;;;;;7.87;7.07;;;;;;;8.56;100.00;97732.16;5074507;28;20222;-60
2023/10/02 04:55:27;;;;;;;7.77;7.07;;;;;;;8.54;100.00;97724.38;5076234;28;20229;-61
2023/10/02 04:58:03;;;;;;;8.37;7.57;;;;;;;8.55;100.00;97735.78;5069195;28;20840;-58
2023/10/02 05:00:33;;;;;;;7.73;7.03;;;;;;;8.59;100.00;97729.19;5076695;28;20767;-57
2023/10/02 05:03:09;;;;;;;8.73;7.10;;;;;;;8.62;100.00;97728.03;5022274;28;20211;-58
2023/10/02 05:05:42;;;;;;;8.00;7.20;;;;;;;8.61;100.00;97735.13;5076810;28;20217;-58
2023/10/02 05:08:18;;;;;;;7.90;7.10;;;;;;;8.58;100.00;97727.53;5073982;28;20245;-56
2023/10/02 05:10:49;;;;;;;7.80;7.03;;;;;;;8.57;100.00;97730.31;5075568;28;20239;-62
2023/10/02 05:16:13;;;;;;;7.37;6.67;;;;;;;8.61;100.00;97732.50;5012077;28;21234;-56
2023/10/02 05:18:44;;;;;;;7.57;6.37;;;;;;;8.55;100.00;97717.28;4982502;28;20922;-59
2023/10/02 05:21:16;;;;;;;6.87;6.27;;;;;;;8.59;100.00;97731.00;5076961;28;20206;-58
2023/10/02 05:23:56;;;;;;;6.30;5.80;;;;;;;8.58;100.00;97742.53;5077349;28;20292;-55
2023/10/02 05:26:39;;;;;;;4.87;4.47;;;;;;;8.58;100.00;97739.91;5081699;28;20202;-58
2023/10/02 05:29:08;;;;;;;5.17;4.77;;;;;;;8.62;100.00;97741.25;5077906;28;20214;-55
2023/10/02 05:31:40;;;;;;;5.50;5.00;;;;;;;8.59;100.00;97734.47;5081889;28;20203;-58
2023/10/02 05:34:13;;;;;;;5.20;4.80;;;;;;;8.67;100.00;97739.78;5036534;28;20705;-56
2023/10/02 05:36:55;;;;;;;5.90;5.40;;;;;;;8.70;100.00;97741.28;5079166;28;20267;-58
2023/10/02 05:39:31;;;;;;;7.10;6.40;;;;;;;8.73;100.00;97738.34;5069257;28;20225;-56
2023/10/02 05:42:05;;;;;;;7.33;6.67;;;;;;;8.78;100.00;97741.31;5077703;28;20202;-58
2023/10/02 05:44:34;;;;;;;6.40;5.90;;;;;;;8.78;100.00;97733.41;5075107;28;20219;-56
2023/10/02 05:47:08;;;;;;;7.30;6.70;;;;;;;8.87;100.00;97739.53;5077429;28;20401;-58
2023/10/02 05:49:43;;;;;;;7.57;6.87;;;;;;;8.94;100.00;97745.84;4975809;28;20221;-57
2023/10/02 05:52:11;;;;;;;7.17;6.47;;;;;;;9.00;100.00;97738.28;5076166;28;20645;-58
2023/10/02 05:54:47;;;;;;;7.03;6.33;;;;;;;9.02;100.00;97742.38;5072023;28;20253;-56
2023/10/02 05:57:16;;;;;;;5.27;4.80;;;;;;;9.09;100.00;97739.94;5077984;28;20201;-55
2023/10/02 05:59:46;;;;;;;5.20;4.87;;;;;;;9.17;100.00;97747.88;5077027;28;20337;-56
2023/10/02 06:02:14;;;;;;;5.03;4.53;;;;;;;9.27;100.00;97751.22;5077777;28;20191;-58
2023/10/02 06:04:47;;;;;;;4.93;4.47;;;;;;;9.39;100.00;97756.22;5070558;28;20652;-56
2023/10/02 06:10:08;;;;;;;7.07;6.47;;;;;;;9.48;100.00;97747.31;5030718;28;20328;-58
2023/10/02 06:12:42;;;;;;;6.80;5.67;;;;;;;9.52;100.00;97755.75;5077159;28;20218;-59
2023/10/02 06:15:43;;;;;;;6.47;5.93;;;;;;;9.52;100.00;97756.56;5077113;28;20287;-61
2023/10/02 06:17:59;;;;;;;7.50;6.90;;;;;;;9.55;100.00;97750.13;5074774;28;20198;-58
2023/10/02 06:20:28;;;;;;;7.20;6.50;;;;;;;9.61;100.00;97760.06;5072374;28;20206;-59
2023/10/02 06:23:05;;;;;;;7.23;6.53;;;;;;;9.44;100.00;97745.97;5070878;28;20222;-58
2023/10/02 06:25:34;;;;;;;7.20;6.70;;;;;;;9.70;100.00;97763.53;5007181;28;20306;-57
2023/10/02 06:28:19;;;;;;;6.83;6.33;;;;;;;9.83;100.00;97760.38;5078968;28;20206;-58
2023/10/02 06:30:47;;;;;;;6.87;6.37;;;;;;;10.01;100.00;97762.88;5072393;28;20315;-56
2023/10/02 06:33:17;;;;;;;7.20;6.60;;;;;;;10.16;100.00;97754.28;5077388;28;20360;-57
2023/10/02 06:35:56;;;;;;;7.03;6.37;;;;;;;10.26;100.00;97754.91;5072410;28;20198;-55
2023/10/02 06:38:24;;;;;;;7.97;7.37;;;;;;;10.42;100.00;97751.44;5014765;28;20232;-57
2023/10/02 06:40:56;;;;;;;6.27;5.77;;;;;;;10.54;100.00;97749.25;5078973;28;20229;-55
2023/10/02 06:43:29;;;;;;;7.97;7.27;;;;;;;10.64;100.00;97754.38;5029832;28;20685;-58
2023/10/02 06:46:09;;;;;;;7.00;6.30;;;;;;;10.70;100.00;97756.34;5059973;28;20206;-57
2023/10/02 06:48:39;;;;;;;7.70;6.97;;;;;;;10.90;100.00;97748.81;5060475;28;20230;-59
2023/10/02 06:51:08;;;;;;;7.67;7.07;;;;;;;11.07;100.00;97749.56;5082812;28;20202;-58
2023/10/02 06:53:40;;;;;;;7.33;6.67;;;;;;;11.24;100.00;97755.63;5023152;28;20487;-59
2023/10/02 06:56:10;;;;;;;8.77;7.97;;;;;;;11.47;100.00;97751.34;5079960;28;20202;-59
2023/10/02 06:58:48;;;;;;;8.63;7.87;;;;;;;11.65;100.00;97743.91;4968758;28;20222;-59
2023/10/02 07:01:18;;;;;;;9.93;8.93;;;;;;;11.85;100.00;97746.91;5077995;28;20281;-58
2023/10/02 07:03:50;;;;;;;10.23;9.23;;;;;;;11.93;100.00;97751.34;5071296;28;20201;-55
2023/10/02 07:06:20;;;;;;;8.87;8.03;;;;;;;11.97;100.00;97752.63;5076184;28;20206;-60
2023/10/02 07:08:59;;;;;;;9.43;8.53;;;;;;;12.19;100.00;97752.81;5075904;28;20224;-56
2023/10/02 07:11:36;;;;;;;8.67;7.87;;;;;;;12.37;100.00;97752.47;5068731;28;20225;-58
2023/10/02 07:14:06;;;;;;;8.43;7.57;;;;;;;12.66;100.00;97758.78;5063341;28;20222;-59
2023/10/02 07:16:34;;;;;;;9.23;8.33;;;;;;;12.68;100.00;97750.66;5080460;28;20195;-56
2023/10/02 07:19:04;;;;;;;9.40;8.60;;;;;;;12.76;100.00;97750.56;5023710;28;20230;-56
2023/10/02 07:21:35;;;;;;;10.20;9.07;;;;;;;13.07;100.00;97751.34;5066364;28;20810;-56
2023/10/02 07:24:04;;;;;;;9.67;8.67;;;;;;;13.26;100.00;97752.63;5067983;28;20285;-59
2023/10/02 07:26:49;;;;;;;9.67;8.77;;;;;;;13.54;100.00;97757.22;5079519;28;20622;-58
2023/10/02 07:29:17;;;;;;;10.83;8.67;;;;;;;13.50;100.00;97754.13;4979990;28;20245;-58
2023/10/02 07:31:46;;;;;;;9.23;8.30;;;;;;;13.94;100.00;97748.81;5077488;28;20526;-60
2023/10/02 07:34:15;;;;;;;10.47;9.33;;;;;;;14.08;100.00;97745.22;5071608;28;20712;-55
2023/10/02 07:36:45;;;;;;;13.20;10.10;;;;;;;14.21;100.00;97738.38;5074327;28;20237;-59
2023/10/02 07:39:35;;;;;;;13.07;10.00;;;;;;;14.38;100.00;97730.88;5071174;28;21601;-59
2023/10/02 07:42:01;;;;;;;11.40;9.70;;;;;;;14.58;100.00;97739.84;5073435;28;20256;-59
2023/10/02 07:44:36;;;;;;;11.30;9.50;;;;;;;14.69;100.00;97727.81;5074472;28;20595;-58
2023/10/02 07:47:10;;;;;;;11.57;10.37;;;;;;;14.97;100.00;97736.78;5072182;28;20325;-60
2023/10/02 07:49:39;;;;;;;12.00;10.23;;;;;;;15.22;100.00;97739.75;4978398;28;20232;-59
2023/10/02 07:52:09;;;;;;;10.83;9.50;;;;;;;15.42;100.00;97722.97;5076475;28;20731;-59
2023/10/02 07:54:45;;;;;;;10.17;9.10;;;;;;;15.48;100.00;97739.00;5069721;28;20578;-60
2023/10/02 07:57:14;;;;;;;10.23;9.10;;;;;;;15.37;100.00;97733.44;5077476;28;20210;-62
2023/10/02 07:59:43;;;;;;;12.60;9.87;;;;;;;15.61;100.00;97738.22;4967151;28;20715;-60
2023/10/02 08:02:22;;;;;;;10.83;8.97;;;;;;;15.61;100.00;97730.19;5077380;28;20218;-59
2023/10/02 08:04:51;;;;;;;12.27;8.77;;;;;;;15.85;100.00;97727.97;5065835;28;20232;-60
2023/10/02 08:07:21;;;;;;;11.63;9.17;;;;;;;16.05;100.00;97727.19;5078040;28;20630;-59
2023/10/02 08:10:10;;;;;;;10.13;8.87;;;;;;;16.16;100.00;97723.91;5075488;28;20237;-58
2023/10/02 08:12:50;;;;;;;10.63;9.13;;;;;;;16.17;100.00;97720.19;5062793;28;20260;-57
2023/10/02 08:15:27;;;;;;;11.97;8.97;;;;;;;16.26;100.00;97725.31;5073269;28;20252;-60
2023/10/02 08:18:03;;;;;;;10.80;9.70;;;;;;;16.25;100.00;97721.81;5074551;28;20401;-58
2023/10/02 08:20:37;;;;;;;14.27;9.03;;;;;;;16.60;100.00;97718.88;5020085;28;20259;-56
2023/10/02 08:23:22;;;;;;;10.00;9.03;;;;;;;16.53;100.00;97727.97;5066731;28;20202;-58
2023/10/02 08:26:05;;;;;;;14.17;9.60;;;;;;;16.68;100.00;97725.06;5067420;28;20277;-60
2023/10/02 08:28:54;;;;;;;11.20;9.67;;;;;;;16.93;100.00;97727.84;4997951;28;20237;-59
2023/10/02 08:31:27;;;;;;;11.00;9.27;;;;;;;17.00;100.00;97733.19;5079260;28;20680;-59
2023/10/02 08:34:03;;;;;;;12.57;10.63;;;;;;;16.88;100.00;97727.66;4962812;28;20223;-59
2023/10/02 08:36:40;;;;;;;10.47;9.33;;;;;;;17.12;100.00;97725.31;5071862;28;20195;-58
2023/10/02 08:39:10;;;;;;;11.87;10.37;;;;;;;16.87;100.00;97724.16;5063528;28;20908;-58
2023/10/02 08:41:50;;;;;;;11.23;9.60;;;;;;;17.15;100.00;97720.38;5073785;28;20576;-58
2023/10/02 08:44:18;;;;;;;13.07;10.57;;;;;;;16.89;100.00;97715.94;5054113;28;20287;-55
2023/10/02 08:46:48;;;;;;;12.10;9.97;;;;;;;17.16;100.00;97710.47;5074842;28;20216;-59
2023/10/02 08:49:16;;;;;;;14.57;10.87;;;;;;;17.18;100.00;97721.78;5073887;28;20219;-57
2023/10/02 08:51:49;;;;;;;13.47;9.77;;;;;;;17.30;100.00;97721.94;5077427;28;20347;-53
2023/10/02 08:54:19;;;;;;;11.87;9.13;;;;;;;17.42;100.00;97700.66;5026000;28;20229;-58
2023/10/02 08:57:05;;;;;;;11.53;10.17;;;;;;;17.39;100.00;97711.81;5071647;28;20234;-59
2023/10/02 08:59:38;;;;;;;15.50;10.43;;;;;;;17.35;100.00;97716.75;5069763;28;20736;-60
2023/10/02 09:02:08;;;;;;;12.63;10.50;;;;;;;17.16;100.00;97707.78;5072613;28;20814;-60
2023/10/02 09:04:36;;;;;;;14.80;11.13;;;;;;;17.43;100.00;97704.97;5069548;28;20229;-59
2023/10/02 09:07:16;;;;;;;12.23;9.40;;;;;;;17.55;100.00;97703.25;5075161;28;20278;-59
2023/10/02 09:09:54;;;;;;;14.40;11.57;;;;;;;17.57;100.00;97705.72;4986497;28;20312;-60
2023/10/02 09:12:23;;;;;;;12.90;10.00;;;;;;;17.81;100.00;97697.94;5015979;28;20206;-57
2023/10/02 09:14:54;;;;;;;15.93;11.20;;;;;;;17.63;100.00;97708.38;5075794;28;20276;-58
2023/10/02 09:17:23;;;;;;;16.87;11.60;;;;;;;17.71;100.00;97701.91;5071635;28;20221;-58
2023/10/02 09:19:56;;;;;;;15.83;11.90;;;;;;;17.86;100.00;97692.75;5070075;28;20305;-58
2023/10/02 09:22:26;;;;;;;15.27;12.13;;;;;;;17.93;100.00;97702.34;5017735;28;20393;-59
2023/10/02 09:27:56;;;;;;;15.80;11.63;;;;;;;18.14;100.00;97697.69;5011307;28;20203;-58
2023/10/02 09:30:36;;;;;;;16.07;11.37;;;;;;;18.39;100.00;97702.19;5073395;28;20209;-56
2023/10/02 09:33:14;;;;;;;16.50;11.87;;;;;;;18.48;100.00;97700.88;5020329;28;20217;-59
2023/10/02 09:36:02;;;;;;;17.13;11.60;;;;;;;18.52;100.00;97696.69;5071522;28;20199;-60
2023/10/02 09:38:51;;;;;;;15.70;11.70;;;;;;;18.74;100.00;97695.44;5074794;28;20226;-57
2023/10/02 09:41:23;;;;;;;15.60;11.77;;;;;;;18.86;100.00;97693.63;4986110;28;20930;-60
2023/10/02 09:43:52;;;;;;;16.30;11.90;;;;;;;18.95;100.00;97702.19;5055332;28;20187;-55
2023/10/02 09:46:22;;;;;;;14.53;11.50;;;;;;;18.91;100.00;97695.63;5066158;28;20289;-59
2023/10/02 09:49:03;;;;;;;17.90;12.03;;;;;;;18.88;100.00;97691.53;5064513;28;20761;-59
2023/10/02 09:51:45;;;;;;;13.20;10.00;;;;;;;18.89;100.00;97689.69;5068091;28;20589;-54
2023/10/02 09:54:20;;;;;;;13.17;10.30;;;;;;;19.00;100.00;97682.75;5074083;28;20217;-58
2023/10/02 09:57:04;;;;;;;13.43;11.03;;;;;;;18.98;100.00;97676.81;5017779;28;20309;-60
2023/10/02 09:59:37;;;;;;;17.40;13.30;;;;;;;19.21;100.00;97686.81;5075262;28;20694;-60
2023/10/02 10:08:19;;;;;;;19.73;12.70;;;;;;;19.47;100.00;97682.94;5027774;28;21491;-60
2023/10/02 10:10:48;;;;;;;12.37;10.37;;;;;;;19.60;100.00;97681.94;5075124;28;21174;-60
2023/10/02 10:13:36;;;;;;;15.33;11.17;;;;;;;19.70;100.00;97677.84;5074707;28;20199;-58
2023/10/02 10:16:36;;;;;;;14.50;10.53;;;;;;;19.57;100.00;97677.00;5015672;28;21190;-60
2023/10/02 10:19:30;;;;;;;13.87;10.00;;;;;;;19.56;100.00;97670.00;5076351;28;20642;-62
2023/10/02 10:22:00;;;;;;;13.93;10.30;;;;;;;19.62;100.00;97663.69;5072691;28;20206;-59
2023/10/02 10:24:32;;;;;;;14.60;10.53;;;;;;;19.60;100.00;97665.78;5084444;28;20711;-61
2023/10/02 10:27:01;;;;;;;14.90;11.00;;;;;;;19.63;100.00;97657.28;5080059;28;20745;-58
2023/10/02 10:29:41;;;;;;;13.27;10.27;;;;;;;19.66;100.00;97656.81;5080462;28;20263;-61
2023/10/02 10:32:23;;;;;;;15.43;11.60;;;;;;;19.77;100.00;97641.75;5030603;28;20676;-59
2023/10/02 10:35:12;;;;;;;14.47;10.47;;;;;;;20.01;100.00;97646.34;5075855;28;20653;-57
2023/10/02 10:37:41;;;;;;;14.77;10.30;;;;;;;20.20;100.00;97637.09;5068417;28;20281;-60
2023/10/02 10:42:59;;;;;;;15.87;12.07;;;;;;;20.33;100.00;97643.28;5075667;28;20278;-60
2023/10/02 10:45:33;;;;;;;13.57;10.73;;;;;;;20.43;100.00;97646.19;5074393;28;20203;-60
2023/10/02 10:48:01;;;;;;;15.17;10.90;;;;;;;20.42;100.00;97630.28;5072387;28;20218;-61
2023/10/02 10:50:30;;;;;;;14.60;11.17;;;;;;;20.45;100.00;97633.31;5077253;28;20213;-61
2023/10/02 10:53:25;;;;;;;13.97;10.60;;;;;;;20.39;100.00;97636.97;4963518;28;20225;-59
2023/10/02 10:55:54;;;;;;;15.83;11.47;;;;;;;20.32;100.00;97628.22;5077564;28;20640;-61
2023/10/02 10:58:31;;;;;;;16.07;11.37;;;;;;;20.41;100.00;97628.63;5077170;28;20341;-62
2023/10/02 11:01:02;;;;;;;15.40;11.97;;;;;;;20.38;100.00;97619.19;5057376;28;20369;-60
2023/10/02 11:03:31;;;;;;;15.00;11.23;;;;;;;20.51;100.00;97632.38;5056227;28;20205;-60
2023/10/02 11:06:03;;;;;;;16.43;11.00;;;;;;;20.49;100.00;97626.41;5071769;28;20772;-61
2023/10/02 11:08:33;;;;;;;14.20;11.50;;;;;;;20.65;100.00;97624.84;5070180;28;20673;-59
2023/10/02 11:11:02;;;;;;;15.77;11.17;;;;;;;20.63;100.00;97623.44;5071227;28;20207;-59
2023/10/02 11:13:30;;;;;;;15.57;11.20;;;;;;;20.81;100.00;97617.94;5072944;28;20203;-60
2023/10/02 11:15:59;;;;;;;13.90;11.00;;;;;;;;;;5074243;28;21127;-61
2023/10/02 11:18:28;;;;;;;13.90;9.93;;;;;;;20.85;100.00;97618.28;5076936;28;20671;-60
2023/10/02 11:20:57;;;;;;;13.10;10.10;;;;;;;20.94;100.00;97608.75;5034113;28;20749;-60
2023/10/02 11:23:37;;;;;;;16.60;11.03;;;;;;;21.10;100.00;97609.84;5010880;28;20206;-59
2023/10/02 11:26:11;;;;;;;16.10;11.20;;;;;;;21.21;100.00;97610.84;5078969;28;20194;-60
2023/10/02 11:28:40;;;;;;;14.03;10.00;;;;;;;21.19;100.00;97596.78;5076960;28;20222;-62
2023/10/02 11:31:29;;;;;;;14.47;10.87;;;;;;;21.30;100.00;97613.94;5075072;28;20390;-60
2023/10/02 11:34:03;;;;;;;14.80;10.50;;;;;;;21.46;100.00;97611.53;5077145;28;20202;-60
2023/10/02 11:36:53;;;;;;;14.57;10.80;;;;;;;21.57;100.00;97602.53;5026328;28;20226;-59
2023/10/02 11:39:27;;;;;;;14.30;9.97;;;;;;;21.57;100.00;97599.00;5075353;28;20226;-58
2023/10/02 11:41:55;;;;;;;13.87;10.43;;;;;;;21.59;100.00;97604.97;5071003;28;20202;-61
2023/10/02 11:44:23;;;;;;;15.30;10.70;;;;;;;21.62;100.00;97599.91;5075289;28;20634;-59
2023/10/02 11:46:51;;;;;;;16.27;10.70;;;;;;;21.71;100.00;97591.44;5071748;28;20244;-58
2023/10/02 11:49:20;;;;;;;12.63;9.93;;;;;;;21.63;100.00;97596.16;5075457;28;20287;-59
2023/10/02 11:51:47;;;;;;;16.43;11.13;;;;;;;21.72;100.00;97590.38;5072616;28;20290;-57
2023/10/02 11:54:17;;;;;;;12.47;10.60;;;;;;;21.79;100.00;97588.34;5075110;28;20225;-59
2023/10/02 11:56:46;;;;;;;17.40;11.70;;;;;;;21.85;100.00;97583.84;4970869;28;21443;-60
2023/10/02 11:59:15;;;;;;;15.17;11.00;;;;;;;21.82;100.00;97585.97;5074229;28;20218;-57
2023/10/02 12:01:43;;;;;;;14.60;10.53;;;;;;;22.01;100.00;97583.00;5075294;28;20206;-57
2023/10/02 12:04:11;;;;;;;16.53;10.97;;;;;;;22.10;100.00;97577.97;5076226;28;20662;-60
2023/10/02 12:06:41;;;;;;;15.33;10.53;;;;;;;22.19;100.00;97575.66;5073525;28;20406;-59
2023/10/02 12:09:17;;;;;;;15.80;10.23;;;;;;;22.46;100.00;97575.75;5014400;28;20579;-60
2023/10/02 12:11:45;;;;;;;16.60;11.27;;;;;;;22.54;100.00;97566.41;5073825;28;20209;-59
2023/10/02 12:14:13;;;;;;;13.83;10.43;;;;;;;22.61;99.58;97567.03;5074211;28;20641;-60
2023/10/02 12:16:41;;;;;;;13.13;10.30;;;;;;;22.59;95.24;97560.28;5071556;28;20226;-59
2023/10/02 12:19:10;;;;;;;13.70;10.17;;;;;;;22.82;98.11;97559.97;5020170;28;20441;-59